sensor_id;sensor_type;location;lat;lon;timestamp;temperature;humidity
26503;DHT22;14177;51.520;6.764;2022-08-11T00:01:59;22.80;51.30
26503;DHT22;14177;51.520;6.764;2022-08-11T00:04:34;22.70;51.30
26503;DHT22;14177;51.520;6.764;2022-08-11T00:07:03;22.70;51.40
26503;DHT22;14177;51.520;6.764;2022-08-11T00:09:36;22.70;51.60
26503;DHT22;14177;51.520;6.764;2022-08-11T00:12:13;22.70;51.50
26503;DHT22;14177;51.520;6.764;2022-08-11T00:14:42;22.60;51.60
26503;DHT22;14177;51.520;6.764;2022-08-11T00:17:12;22.60;51.80
26503;DHT22;14177;51.520;6.764;2022-08-11T00:19:46;22.60;52.00
26503;DHT22;14177;51.520;6.764;2022-08-11T00:22:37;22.50;52.00
26503;DHT22;14177;51.520;6.764;2022-08-11T00:25:10;22.50;52.10
26503;DHT22;14177;51.520;6.764;2022-08-11T00:27:40;22.40;52.10
26503;DHT22;14177;51.520;6.764;2022-08-11T00:30:09;22.40;52.40
26503;DHT22;14177;51.520;6.764;2022-08-11T00:32:40;22.40;52.60
26503;DHT22;14177;51.520;6.764;2022-08-11T00:35:14;22.40;52.70
26503;DHT22;14177;51.520;6.764;2022-08-11T00:38:04;22.30;52.70
26503;DHT22;14177;51.520;6.764;2022-08-11T00:40:40;22.30;52.90
26503;DHT22;14177;51.520;6.764;2022-08-11T00:46:21;22.20;53.00
26503;DHT22;14177;51.520;6.764;2022-08-11T00:55:30;22.00;53.20
26503;DHT22;14177;51.520;6.764;2022-08-11T01:18:46;21.60;54.90
26503;DHT22;14177;51.520;6.764;2022-08-11T01:25:28;21.50;55.30
26503;DHT22;14177;51.520;6.764;2022-08-11T01:43:56;21.20;56.30
26503;DHT22;14177;51.520;6.764;2022-08-11T02:04:55;20.90;57.70
26503;DHT22;14177;51.520;6.764;2022-08-11T02:07:38;20.80;58.00
26503;DHT22;14177;51.520;6.764;2022-08-11T02:19:21;20.40;59.80
26503;DHT22;14177;51.520;6.764;2022-08-11T02:22:31;20.30;60.10
26503;DHT22;14177;51.520;6.764;2022-08-11T04:13:56;18.50;70.40
26503;DHT22;14177;51.520;6.764;2022-08-11T04:23:41;18.40;70.70
26503;DHT22;14177;51.520;6.764;2022-08-11T04:30:16;18.30;70.90
26503;DHT22;14177;51.520;6.764;2022-08-11T04:33:02;18.30;71.10
26503;DHT22;14177;51.520;6.764;2022-08-11T04:35:57;18.30;71.30
26503;DHT22;14177;51.520;6.764;2022-08-11T04:45:38;18.30;70.80
26503;DHT22;14177;51.520;6.764;2022-08-11T05:11:38;18.90;68.80
26503;DHT22;14177;51.520;6.764;2022-08-11T05:14:33;18.90;68.60
26503;DHT22;14177;51.520;6.764;2022-08-11T05:17:34;19.00;69.00
26503;DHT22;14177;51.520;6.764;2022-08-11T05:20:24;19.10;68.60
26503;DHT22;14177;51.520;6.764;2022-08-11T05:23:11;19.20;68.60
26503;DHT22;14177;51.520;6.764;2022-08-11T05:26:01;19.30;68.40
26503;DHT22;14177;51.520;6.764;2022-08-11T05:29:26;19.40;68.20
26503;DHT22;14177;51.520;6.764;2022-08-11T05:32:23;19.50;67.80
26503;DHT22;14177;51.520;6.764;2022-08-11T05:35:12;19.50;67.60
26503;DHT22;14177;51.520;6.764;2022-08-11T05:38:02;19.60;67.30
26503;DHT22;14177;51.520;6.764;2022-08-11T05:40:57;19.70;66.80
26503;DHT22;14177;51.520;6.764;2022-08-11T05:43:44;19.80;66.60
26503;DHT22;14177;51.520;6.764;2022-08-11T05:46:47;19.90;65.70
26503;DHT22;14177;51.520;6.764;2022-08-11T05:49:34;20.00;66.20
26503;DHT22;14177;51.520;6.764;2022-08-11T05:52:27;20.10;66.10
26503;DHT22;14177;51.520;6.764;2022-08-11T05:55:23;20.20;66.10
26503;DHT22;14177;51.520;6.764;2022-08-11T05:58:37;20.30;66.00
26503;DHT22;14177;51.520;6.764;2022-08-11T06:01:10;20.40;65.60
26503;DHT22;14177;51.520;6.764;2022-08-11T06:03:43;20.50;64.90
26503;DHT22;14177;51.520;6.764;2022-08-11T06:06:30;20.60;65.00
26503;DHT22;14177;51.520;6.764;2022-08-11T06:08:58;20.70;64.60
26503;DHT22;14177;51.520;6.764;2022-08-11T06:11:27;20.80;64.80
26503;DHT22;14177;51.520;6.764;2022-08-11T06:14:11;20.90;64.20
26503;DHT22;14177;51.520;6.764;2022-08-11T06:16:42;21.00;64.10
26503;DHT22;14177;51.520;6.764;2022-08-11T06:19:15;21.10;63.80
26503;DHT22;14177;51.520;6.764;2022-08-11T06:21:46;21.20;63.40
26503;DHT22;14177;51.520;6.764;2022-08-11T06:24:14;21.30;63.20
26503;DHT22;14177;51.520;6.764;2022-08-11T06:26:49;21.40;62.90
26503;DHT22;14177;51.520;6.764;2022-08-11T06:29:45;21.50;62.20
26503;DHT22;14177;51.520;6.764;2022-08-11T06:32:30;21.60;62.40
26503;DHT22;14177;51.520;6.764;2022-08-11T06:35:18;21.70;62.00
26503;DHT22;14177;51.520;6.764;2022-08-11T06:38:07;21.80;61.70
26503;DHT22;14177;51.520;6.764;2022-08-11T06:46:42;22.00;60.50
26503;DHT22;14177;51.520;6.764;2022-08-11T06:49:21;22.10;60.60
26503;DHT22;14177;51.520;6.764;2022-08-11T06:52:17;22.30;60.20
26503;DHT22;14177;51.520;6.764;2022-08-11T06:55:27;22.40;59.90
26503;DHT22;14177;51.520;6.764;2022-08-11T06:58:29;22.50;59.20
26503;DHT22;14177;51.520;6.764;2022-08-11T07:01:28;22.70;58.80
26503;DHT22;14177;51.520;6.764;2022-08-11T07:04:06;22.80;59.00
26503;DHT22;14177;51.520;6.764;2022-08-11T07:06:42;23.00;58.70
26503;DHT22;14177;51.520;6.764;2022-08-11T07:10:07;23.10;58.00
26503;DHT22;14177;51.520;6.764;2022-08-11T07:13:03;23.30;57.40
26503;DHT22;14177;51.520;6.764;2022-08-11T07:16:13;23.50;57.10
26503;DHT22;14177;51.520;6.764;2022-08-11T07:18:54;23.60;56.40
26503;DHT22;14177;51.520;6.764;2022-08-11T07:21:47;23.70;56.30
26503;DHT22;14177;51.520;6.764;2022-08-11T07:24:58;23.90;55.80
26503;DHT22;14177;51.520;6.764;2022-08-11T07:28:13;24.10;54.60
26503;DHT22;14177;51.520;6.764;2022-08-11T07:31:11;24.20;54.30
26503;DHT22;14177;51.520;6.764;2022-08-11T07:33:56;24.30;53.60
26503;DHT22;14177;51.520;6.764;2022-08-11T07:36:46;24.40;53.50
26503;DHT22;14177;51.520;6.764;2022-08-11T07:39:21;24.50;53.20
26503;DHT22;14177;51.520;6.764;2022-08-11T07:41:52;24.70;52.80
26503;DHT22;14177;51.520;6.764;2022-08-11T07:44:21;24.90;52.90
26503;DHT22;14177;51.520;6.764;2022-08-11T07:46:58;25.10;52.20
26503;DHT22;14177;51.520;6.764;2022-08-11T07:49:47;25.30;51.60
26503;DHT22;14177;51.520;6.764;2022-08-11T07:52:36;25.40;51.00
26503;DHT22;14177;51.520;6.764;2022-08-11T07:55:07;25.60;50.60
26503;DHT22;14177;51.520;6.764;2022-08-11T07:57:40;25.80;50.20
26503;DHT22;14177;51.520;6.764;2022-08-11T08:00:50;26.00;50.40
26503;DHT22;14177;51.520;6.764;2022-08-11T08:03:48;26.20;50.20
26503;DHT22;14177;51.520;6.764;2022-08-11T08:06:35;26.40;49.30
26503;DHT22;14177;51.520;6.764;2022-08-11T08:09:23;26.70;48.10
26503;DHT22;14177;51.520;6.764;2022-08-11T08:12:10;27.00;48.70
26503;DHT22;14177;51.520;6.764;2022-08-11T08:14:57;27.30;47.90
26503;DHT22;14177;51.520;6.764;2022-08-11T08:17:46;27.50;47.30
26503;DHT22;14177;51.520;6.764;2022-08-11T08:20:45;27.70;46.50
26503;DHT22;14177;51.520;6.764;2022-08-11T08:23:20;27.90;46.50
26503;DHT22;14177;51.520;6.764;2022-08-11T08:26:02;28.20;45.70
26503;DHT22;14177;51.520;6.764;2022-08-11T08:29:07;28.30;44.80
26503;DHT22;14177;51.520;6.764;2022-08-11T08:34:53;28.70;44.70
26503;DHT22;14177;51.520;6.764;2022-08-11T08:37:23;28.90;44.10
26503;DHT22;14177;51.520;6.764;2022-08-11T08:40:13;29.10;44.00
26503;DHT22;14177;51.520;6.764;2022-08-11T08:42:48;29.40;43.30
26503;DHT22;14177;51.520;6.764;2022-08-11T08:45:23;29.70;43.10
26503;DHT22;14177;51.520;6.764;2022-08-11T08:48:02;29.80;42.50
26503;DHT22;14177;51.520;6.764;2022-08-11T08:51:00;29.90;41.40
26503;DHT22;14177;51.520;6.764;2022-08-11T08:53:50;30.10;41.30
26503;DHT22;14177;51.520;6.764;2022-08-11T08:56:26;30.30;40.80
26503;DHT22;14177;51.520;6.764;2022-08-11T08:58:56;30.60;41.00
26503;DHT22;14177;51.520;6.764;2022-08-11T09:01:35;31.00;40.40
26503;DHT22;14177;51.520;6.764;2022-08-11T09:04:07;31.30;40.40
26503;DHT22;14177;51.520;6.764;2022-08-11T09:06:40;31.50;39.40
26503;DHT22;14177;51.520;6.764;2022-08-11T09:09:19;31.80;37.90
26503;DHT22;14177;51.520;6.764;2022-08-11T09:11:47;31.90;38.50
26503;DHT22;14177;51.520;6.764;2022-08-11T09:14:26;32.10;37.80
26503;DHT22;14177;51.520;6.764;2022-08-11T09:17:19;32.10;37.20
26503;DHT22;14177;51.520;6.764;2022-08-11T09:19:52;32.10;37.50
26503;DHT22;14177;51.520;6.764;2022-08-11T09:22:25;32.20;37.50
26503;DHT22;14177;51.520;6.764;2022-08-11T09:25:13;32.30;36.50
26503;DHT22;14177;51.520;6.764;2022-08-11T09:28:00;32.40;35.90
26503;DHT22;14177;51.520;6.764;2022-08-11T09:30:30;32.30;36.20
26503;DHT22;14177;51.520;6.764;2022-08-11T09:33:00;32.40;36.00
26503;DHT22;14177;51.520;6.764;2022-08-11T09:35:33;32.60;36.80
26503;DHT22;14177;51.520;6.764;2022-08-11T09:38:04;32.80;36.20
26503;DHT22;14177;51.520;6.764;2022-08-11T09:40:51;33.00;36.20
26503;DHT22;14177;51.520;6.764;2022-08-11T09:43:24;33.50;35.50
26503;DHT22;14177;51.520;6.764;2022-08-11T09:46:11;33.70;34.70
26503;DHT22;14177;51.520;6.764;2022-08-11T09:48:42;33.70;34.50
26503;DHT22;14177;51.520;6.764;2022-08-11T09:51:12;33.90;35.20
26503;DHT22;14177;51.520;6.764;2022-08-11T09:53:42;34.20;35.00
26503;DHT22;14177;51.520;6.764;2022-08-11T09:56:28;34.50;34.70
26503;DHT22;14177;51.520;6.764;2022-08-11T09:59:18;34.50;33.30
26503;DHT22;14177;51.520;6.764;2022-08-11T10:01:49;34.60;33.60
26503;DHT22;14177;51.520;6.764;2022-08-11T10:04:43;34.60;33.00
26503;DHT22;14177;51.520;6.764;2022-08-11T10:07:15;34.60;33.70
26503;DHT22;14177;51.520;6.764;2022-08-11T10:09:58;34.90;33.30
26503;DHT22;14177;51.520;6.764;2022-08-11T10:12:41;35.20;31.80
26503;DHT22;14177;51.520;6.764;2022-08-11T10:15:17;35.20;32.40
26503;DHT22;14177;51.520;6.764;2022-08-11T10:18:15;35.20;32.00
26503;DHT22;14177;51.520;6.764;2022-08-11T10:24:10;35.20;31.90
26503;DHT22;14177;51.520;6.764;2022-08-11T10:26:57;35.10;31.90
26503;DHT22;14177;51.520;6.764;2022-08-11T10:29:35;35.20;31.90
26503;DHT22;14177;51.520;6.764;2022-08-11T10:32:27;35.30;31.70
26503;DHT22;14177;51.520;6.764;2022-08-11T10:35:30;35.50;32.40
26503;DHT22;14177;51.520;6.764;2022-08-11T10:37:59;35.50;31.60
26503;DHT22;14177;51.520;6.764;2022-08-11T10:40:37;35.20;31.20
26503;DHT22;14177;51.520;6.764;2022-08-11T10:43:07;35.00;32.00
26503;DHT22;14177;51.520;6.764;2022-08-11T10:46:02;35.00;32.20
26503;DHT22;14177;51.520;6.764;2022-08-11T10:48:56;35.20;31.80
26503;DHT22;14177;51.520;6.764;2022-08-11T10:51:40;35.50;32.00
26503;DHT22;14177;51.520;6.764;2022-08-11T10:54:32;35.50;31.50
26503;DHT22;14177;51.520;6.764;2022-08-11T10:57:33;35.60;30.90
26503;DHT22;14177;51.520;6.764;2022-08-11T11:00:32;35.40;31.40
26503;DHT22;14177;51.520;6.764;2022-08-11T11:03:07;35.60;32.00
26503;DHT22;14177;51.520;6.764;2022-08-11T11:05:59;35.90;31.30
26503;DHT22;14177;51.520;6.764;2022-08-11T11:09:02;36.00;30.90
26503;DHT22;14177;51.520;6.764;2022-08-11T11:11:38;35.70;30.50
26503;DHT22;14177;51.520;6.764;2022-08-11T11:14:31;35.80;31.10
26503;DHT22;14177;51.520;6.764;2022-08-11T11:17:28;36.30;30.80
26503;DHT22;14177;51.520;6.764;2022-08-11T11:20:29;36.40;30.10
26503;DHT22;14177;51.520;6.764;2022-08-11T11:23:19;36.50;30.10
26503;DHT22;14177;51.520;6.764;2022-08-11T11:29:19;36.90;30.00
26503;DHT22;14177;51.520;6.764;2022-08-11T11:32:11;37.20;29.90
26503;DHT22;14177;51.520;6.764;2022-08-11T11:37:54;37.30;30.00
26503;DHT22;14177;51.520;6.764;2022-08-11T11:40:32;37.60;29.70
26503;DHT22;14177;51.520;6.764;2022-08-11T11:43:00;37.50;29.50
26503;DHT22;14177;51.520;6.764;2022-08-11T11:45:28;37.50;29.30
26503;DHT22;14177;51.520;6.764;2022-08-11T11:47:58;37.40;29.40
26503;DHT22;14177;51.520;6.764;2022-08-11T11:50:36;37.20;29.80
26503;DHT22;14177;51.520;6.764;2022-08-11T11:53:07;37.10;29.50
26503;DHT22;14177;51.520;6.764;2022-08-11T11:55:41;37.20;29.40
26503;DHT22;14177;51.520;6.764;2022-08-11T11:58:12;37.10;29.60
26503;DHT22;14177;51.520;6.764;2022-08-11T12:05:06;37.30;29.40
26503;DHT22;14177;51.520;6.764;2022-08-11T12:07:37;37.20;29.10
26503;DHT22;14177;51.520;6.764;2022-08-11T12:10:43;37.30;30.00
26503;DHT22;14177;51.520;6.764;2022-08-11T12:13:48;37.60;29.60
26503;DHT22;14177;51.520;6.764;2022-08-11T12:16:19;37.70;29.40
26503;DHT22;14177;51.520;6.764;2022-08-11T12:19:22;37.70;29.40
26503;DHT22;14177;51.520;6.764;2022-08-11T12:21:51;37.90;29.20
26503;DHT22;14177;51.520;6.764;2022-08-11T12:24:40;38.10;28.70
26503;DHT22;14177;51.520;6.764;2022-08-11T12:27:29;37.80;28.90
26503;DHT22;14177;51.520;6.764;2022-08-11T12:30:00;37.60;29.50
26503;DHT22;14177;51.520;6.764;2022-08-11T12:32:34;37.80;29.10
26503;DHT22;14177;51.520;6.764;2022-08-11T12:35:05;37.80;28.90
26503;DHT22;14177;51.520;6.764;2022-08-11T12:37:43;37.60;29.00
26503;DHT22;14177;51.520;6.764;2022-08-11T12:40:18;37.40;28.60
26503;DHT22;14177;51.520;6.764;2022-08-11T12:43:30;37.20;28.70
26503;DHT22;14177;51.520;6.764;2022-08-11T12:46:27;36.80;29.20
26503;DHT22;14177;51.520;6.764;2022-08-11T12:48:59;37.10;29.70
26503;DHT22;14177;51.520;6.764;2022-08-11T12:51:53;37.20;29.60
26503;DHT22;14177;51.520;6.764;2022-08-11T12:54:58;36.80;28.90
26503;DHT22;14177;51.520;6.764;2022-08-11T12:57:38;36.60;29.80
26503;DHT22;14177;51.520;6.764;2022-08-11T13:00:27;37.00;30.00
26503;DHT22;14177;51.520;6.764;2022-08-11T13:03:14;37.60;29.80
26503;DHT22;14177;51.520;6.764;2022-08-11T13:06:04;38.10;29.70
26503;DHT22;14177;51.520;6.764;2022-08-11T13:08:34;38.50;29.10
26503;DHT22;14177;51.520;6.764;2022-08-11T13:11:04;38.50;29.00
26503;DHT22;14177;51.520;6.764;2022-08-11T13:14:11;38.60;28.70
26503;DHT22;14177;51.520;6.764;2022-08-11T13:16:42;38.60;29.40
26503;DHT22;14177;51.520;6.764;2022-08-11T13:19:30;38.70;29.00
26503;DHT22;14177;51.520;6.764;2022-08-11T13:21:58;38.80;29.00
26503;DHT22;14177;51.520;6.764;2022-08-11T13:24:28;38.90;29.10
26503;DHT22;14177;51.520;6.764;2022-08-11T13:27:00;38.70;28.80
26503;DHT22;14177;51.520;6.764;2022-08-11T13:29:28;38.60;29.20
26503;DHT22;14177;51.520;6.764;2022-08-11T13:31:57;38.50;29.00
26503;DHT22;14177;51.520;6.764;2022-08-11T13:34:29;38.60;29.10
26503;DHT22;14177;51.520;6.764;2022-08-11T13:37:00;38.70;29.10
26503;DHT22;14177;51.520;6.764;2022-08-11T13:39:32;38.70;29.00
26503;DHT22;14177;51.520;6.764;2022-08-11T13:42:02;38.80;28.70
26503;DHT22;14177;51.520;6.764;2022-08-11T13:44:35;38.90;28.90
26503;DHT22;14177;51.520;6.764;2022-08-11T13:47:06;39.00;28.90
26503;DHT22;14177;51.520;6.764;2022-08-11T13:49:36;39.00;28.50
26503;DHT22;14177;51.520;6.764;2022-08-11T13:52:13;38.70;28.70
26503;DHT22;14177;51.520;6.764;2022-08-11T13:54:42;38.60;29.10
26503;DHT22;14177;51.520;6.764;2022-08-11T13:57:14;38.70;28.90
26503;DHT22;14177;51.520;6.764;2022-08-11T14:00:07;38.50;28.50
26503;DHT22;14177;51.520;6.764;2022-08-11T14:02:54;38.20;28.50
26503;DHT22;14177;51.520;6.764;2022-08-11T14:05:36;38.00;28.70
26503;DHT22;14177;51.520;6.764;2022-08-11T14:08:15;38.10;28.90
26503;DHT22;14177;51.520;6.764;2022-08-11T14:11:05;38.00;28.90
26503;DHT22;14177;51.520;6.764;2022-08-11T14:14:21;37.70;29.20
26503;DHT22;14177;51.520;6.764;2022-08-11T14:16:53;37.70;29.40
26503;DHT22;14177;51.520;6.764;2022-08-11T14:19:25;37.80;29.10
26503;DHT22;14177;51.520;6.764;2022-08-11T14:21:54;37.70;29.10
26503;DHT22;14177;51.520;6.764;2022-08-11T14:24:41;37.80;29.20
26503;DHT22;14177;51.520;6.764;2022-08-11T14:27:16;38.00;29.10
26503;DHT22;14177;51.520;6.764;2022-08-11T14:30:05;38.30;29.30
26503;DHT22;14177;51.520;6.764;2022-08-11T14:32:53;38.20;28.90
26503;DHT22;14177;51.520;6.764;2022-08-11T14:35:26;38.20;29.20
26503;DHT22;14177;51.520;6.764;2022-08-11T14:37:56;38.10;29.20
26503;DHT22;14177;51.520;6.764;2022-08-11T14:40:25;38.20;29.30
26503;DHT22;14177;51.520;6.764;2022-08-11T14:43:11;38.10;29.30
26503;DHT22;14177;51.520;6.764;2022-08-11T14:46:18;38.10;29.20
26503;DHT22;14177;51.520;6.764;2022-08-11T14:49:04;38.20;29.30
26503;DHT22;14177;51.520;6.764;2022-08-11T14:51:32;38.20;29.40
26503;DHT22;14177;51.520;6.764;2022-08-11T14:54:00;38.20;29.20
26503;DHT22;14177;51.520;6.764;2022-08-11T14:56:47;38.20;29.10
26503;DHT22;14177;51.520;6.764;2022-08-11T14:59:14;38.40;29.20
26503;DHT22;14177;51.520;6.764;2022-08-11T15:01:45;38.40;29.00
26503;DHT22;14177;51.520;6.764;2022-08-11T15:04:31;38.40;29.40
26503;DHT22;14177;51.520;6.764;2022-08-11T15:07:02;38.30;29.10
26503;DHT22;14177;51.520;6.764;2022-08-11T15:09:29;38.20;29.10
26503;DHT22;14177;51.520;6.764;2022-08-11T15:11:58;38.20;29.10
26503;DHT22;14177;51.520;6.764;2022-08-11T15:14:55;38.10;28.70
26503;DHT22;14177;51.520;6.764;2022-08-11T15:17:42;38.00;29.00
26503;DHT22;14177;51.520;6.764;2022-08-11T15:20:16;38.00;29.10
26503;DHT22;14177;51.520;6.764;2022-08-11T15:23:04;38.00;29.00
26503;DHT22;14177;51.520;6.764;2022-08-11T15:25:55;38.10;29.20
26503;DHT22;14177;51.520;6.764;2022-08-11T15:28:27;38.00;28.80
26503;DHT22;14177;51.520;6.764;2022-08-11T15:31:16;38.00;29.00
26503;DHT22;14177;51.520;6.764;2022-08-11T15:34:16;37.80;28.90
26503;DHT22;14177;51.520;6.764;2022-08-11T15:37:07;37.70;29.00
26503;DHT22;14177;51.520;6.764;2022-08-11T15:43:25;37.50;29.30
26503;DHT22;14177;51.520;6.764;2022-08-11T15:46:22;37.50;29.30
26503;DHT22;14177;51.520;6.764;2022-08-11T15:49:11;37.30;29.30
26503;DHT22;14177;51.520;6.764;2022-08-11T15:52:06;37.00;29.00
26503;DHT22;14177;51.520;6.764;2022-08-11T15:54:39;36.90;29.20
26503;DHT22;14177;51.520;6.764;2022-08-11T15:57:09;36.90;29.20
26503;DHT22;14177;51.520;6.764;2022-08-11T16:00:08;36.90;28.90
26503;DHT22;14177;51.520;6.764;2022-08-11T16:02:56;36.90;28.90
26503;DHT22;14177;51.520;6.764;2022-08-11T16:05:46;36.70;29.40
26503;DHT22;14177;51.520;6.764;2022-08-11T16:08:20;36.60;29.20
26503;DHT22;14177;51.520;6.764;2022-08-11T16:10:59;36.50;29.00
26503;DHT22;14177;51.520;6.764;2022-08-11T16:13:31;36.40;29.10
26503;DHT22;14177;51.520;6.764;2022-08-11T16:15:59;36.30;29.20
26503;DHT22;14177;51.520;6.764;2022-08-11T16:18:52;36.20;29.60
26503;DHT22;14177;51.520;6.764;2022-08-11T16:21:31;36.30;29.50
26503;DHT22;14177;51.520;6.764;2022-08-11T16:24:12;36.20;29.70
26503;DHT22;14177;51.520;6.764;2022-08-11T16:27:02;36.00;29.70
26503;DHT22;14177;51.520;6.764;2022-08-11T16:29:42;35.80;29.70
26503;DHT22;14177;51.520;6.764;2022-08-11T16:32:15;35.70;29.80
26503;DHT22;14177;51.520;6.764;2022-08-11T16:35:02;35.60;29.90
26503;DHT22;14177;51.520;6.764;2022-08-11T16:37:52;35.50;29.70
26503;DHT22;14177;51.520;6.764;2022-08-11T16:40:42;35.40;30.00
26503;DHT22;14177;51.520;6.764;2022-08-11T16:43:14;35.40;30.00
26503;DHT22;14177;51.520;6.764;2022-08-11T16:46:04;35.20;30.00
26503;DHT22;14177;51.520;6.764;2022-08-11T16:48:52;35.10;30.30
26503;DHT22;14177;51.520;6.764;2022-08-11T16:51:21;35.00;30.20
26503;DHT22;14177;51.520;6.764;2022-08-11T16:53:49;34.90;30.00
26503;DHT22;14177;51.520;6.764;2022-08-11T16:56:38;34.80;30.10
26503;DHT22;14177;51.520;6.764;2022-08-11T16:59:36;34.60;30.30
26503;DHT22;14177;51.520;6.764;2022-08-11T17:02:10;34.60;30.60
26503;DHT22;14177;51.520;6.764;2022-08-11T17:05:06;34.40;30.70
26503;DHT22;14177;51.520;6.764;2022-08-11T17:07:55;34.20;30.70
26503;DHT22;14177;51.520;6.764;2022-08-11T17:10:52;34.20;30.70
26503;DHT22;14177;51.520;6.764;2022-08-11T17:13:44;34.00;31.00
26503;DHT22;14177;51.520;6.764;2022-08-11T17:16:22;33.90;31.30
26503;DHT22;14177;51.520;6.764;2022-08-11T17:18:58;33.80;30.60
26503;DHT22;14177;51.520;6.764;2022-08-11T17:21:35;33.70;30.60
26503;DHT22;14177;51.520;6.764;2022-08-11T17:24:26;33.50;30.50
26503;DHT22;14177;51.520;6.764;2022-08-11T17:26:55;33.30;30.60
26503;DHT22;14177;51.520;6.764;2022-08-11T17:35:25;32.90;30.80
26503;DHT22;14177;51.520;6.764;2022-08-11T17:40:40;32.70;30.90
26503;DHT22;14177;51.520;6.764;2022-08-11T17:43:29;32.70;31.20
26503;DHT22;14177;51.520;6.764;2022-08-11T17:46:17;32.50;31.10
26503;DHT22;14177;51.520;6.764;2022-08-11T17:49:06;32.50;31.50
26503;DHT22;14177;51.520;6.764;2022-08-11T17:51:36;32.40;31.80
26503;DHT22;14177;51.520;6.764;2022-08-11T17:54:24;32.30;31.70
26503;DHT22;14177;51.520;6.764;2022-08-11T17:57:12;32.20;32.00
26503;DHT22;14177;51.520;6.764;2022-08-11T17:59:59;32.20;32.20
26503;DHT22;14177;51.520;6.764;2022-08-11T18:02:42;32.10;32.30
26503;DHT22;14177;51.520;6.764;2022-08-11T18:05:35;31.90;32.50
26503;DHT22;14177;51.520;6.764;2022-08-11T18:08:07;31.90;32.80
26503;DHT22;14177;51.520;6.764;2022-08-11T18:10:55;31.70;32.80
26503;DHT22;14177;51.520;6.764;2022-08-11T18:14:06;31.70;33.10
26503;DHT22;14177;51.520;6.764;2022-08-11T18:16:55;31.60;33.10
26503;DHT22;14177;51.520;6.764;2022-08-11T18:19:41;31.50;33.40
26503;DHT22;14177;51.520;6.764;2022-08-11T18:22:30;31.30;33.40
26503;DHT22;14177;51.520;6.764;2022-08-11T18:25:23;31.30;34.30
26503;DHT22;14177;51.520;6.764;2022-08-11T18:28:14;31.20;33.80
26503;DHT22;14177;51.520;6.764;2022-08-11T18:31:04;31.10;34.50
26503;DHT22;14177;51.520;6.764;2022-08-11T18:33:54;31.00;34.00
26503;DHT22;14177;51.520;6.764;2022-08-11T18:37:31;30.90;34.30
26503;DHT22;14177;51.520;6.764;2022-08-11T18:40:11;30.80;34.40
26503;DHT22;14177;51.520;6.764;2022-08-11T18:43:05;30.70;34.70
26503;DHT22;14177;51.520;6.764;2022-08-11T18:46:00;30.70;35.10
26503;DHT22;14177;51.520;6.764;2022-08-11T18:49:00;30.50;35.30
26503;DHT22;14177;51.520;6.764;2022-08-11T18:52:13;30.40;35.40
26503;DHT22;14177;51.520;6.764;2022-08-11T18:55:02;30.30;35.80
26503;DHT22;14177;51.520;6.764;2022-08-11T18:57:53;30.20;36.20
26503;DHT22;14177;51.520;6.764;2022-08-11T19:00:41;30.10;36.30
26503;DHT22;14177;51.520;6.764;2022-08-11T19:03:31;30.00;36.50
26503;DHT22;14177;51.520;6.764;2022-08-11T19:06:21;29.90;36.70
26503;DHT22;14177;51.520;6.764;2022-08-11T19:09:11;29.80;37.20
26503;DHT22;14177;51.520;6.764;2022-08-11T19:12:00;29.60;37.90
26503;DHT22;14177;51.520;6.764;2022-08-11T19:14:50;29.50;38.30
26503;DHT22;14177;51.520;6.764;2022-08-11T19:17:41;29.40;38.70
26503;DHT22;14177;51.520;6.764;2022-08-11T19:20:31;29.20;38.90
26503;DHT22;14177;51.520;6.764;2022-08-11T19:23:26;29.10;39.00
26503;DHT22;14177;51.520;6.764;2022-08-11T19:26:17;29.00;39.10
26503;DHT22;14177;51.520;6.764;2022-08-11T19:29:04;28.90;39.50
26503;DHT22;14177;51.520;6.764;2022-08-11T19:32:12;28.70;39.80
26503;DHT22;14177;51.520;6.764;2022-08-11T19:35:00;28.60;40.10
26503;DHT22;14177;51.520;6.764;2022-08-11T19:37:48;28.50;40.40
26503;DHT22;14177;51.520;6.764;2022-08-11T19:40:36;28.30;40.60
26503;DHT22;14177;51.520;6.764;2022-08-11T19:43:25;28.10;40.80
26503;DHT22;14177;51.520;6.764;2022-08-11T19:46:21;28.00;41.30
26503;DHT22;14177;51.520;6.764;2022-08-11T19:49:08;27.90;41.20
26503;DHT22;14177;51.520;6.764;2022-08-11T19:51:56;27.80;41.30
26503;DHT22;14177;51.520;6.764;2022-08-11T19:54:43;27.80;41.40
26503;DHT22;14177;51.520;6.764;2022-08-11T19:57:31;27.70;41.50
26503;DHT22;14177;51.520;6.764;2022-08-11T20:00:21;27.50;41.60
26503;DHT22;14177;51.520;6.764;2022-08-11T20:03:11;27.50;42.10
26503;DHT22;14177;51.520;6.764;2022-08-11T20:06:05;27.40;42.40
26503;DHT22;14177;51.520;6.764;2022-08-11T20:08:57;27.20;42.60
26503;DHT22;14177;51.520;6.764;2022-08-11T20:11:49;27.10;42.60
26503;DHT22;14177;51.520;6.764;2022-08-11T20:14:39;27.00;42.70
26503;DHT22;14177;51.520;6.764;2022-08-11T20:17:32;27.00;42.70
26503;DHT22;14177;51.520;6.764;2022-08-11T20:20:22;26.90;42.70
26503;DHT22;14177;51.520;6.764;2022-08-11T20:23:13;26.80;42.80
26503;DHT22;14177;51.520;6.764;2022-08-11T20:26:02;26.80;42.90
26503;DHT22;14177;51.520;6.764;2022-08-11T20:29:20;26.80;43.10
26503;DHT22;14177;51.520;6.764;2022-08-11T20:32:10;26.70;43.00
26503;DHT22;14177;51.520;6.764;2022-08-11T20:35:00;26.60;43.00
26503;DHT22;14177;51.520;6.764;2022-08-11T20:37:51;26.50;43.10
26503;DHT22;14177;51.520;6.764;2022-08-11T20:40:39;26.50;43.40
26503;DHT22;14177;51.520;6.764;2022-08-11T20:43:27;26.40;43.50
26503;DHT22;14177;51.520;6.764;2022-08-11T20:46:38;26.30;43.60
26503;DHT22;14177;51.520;6.764;2022-08-11T20:49:27;26.20;43.70
26503;DHT22;14177;51.520;6.764;2022-08-11T20:52:25;26.20;44.00
26503;DHT22;14177;51.520;6.764;2022-08-11T20:55:14;26.10;44.30
26503;DHT22;14177;51.520;6.764;2022-08-11T20:58:18;26.10;44.50
26503;DHT22;14177;51.520;6.764;2022-08-11T21:01:26;26.00;44.70
26503;DHT22;14177;51.520;6.764;2022-08-11T21:04:17;25.90;44.80
26503;DHT22;14177;51.520;6.764;2022-08-11T21:07:20;25.70;44.90
26503;DHT22;14177;51.520;6.764;2022-08-11T21:10:09;25.70;45.10
26503;DHT22;14177;51.520;6.764;2022-08-11T21:12:57;25.60;45.10
26503;DHT22;14177;51.520;6.764;2022-08-11T21:15:58;25.50;45.10
26503;DHT22;14177;51.520;6.764;2022-08-11T21:19:03;25.50;44.90
26503;DHT22;14177;51.520;6.764;2022-08-11T21:22:21;25.50;45.00
26503;DHT22;14177;51.520;6.764;2022-08-11T21:25:37;25.40;45.10
26503;DHT22;14177;51.520;6.764;2022-08-11T21:28:28;25.40;45.20
26503;DHT22;14177;51.520;6.764;2022-08-11T21:31:16;25.30;45.20
26503;DHT22;14177;51.520;6.764;2022-08-11T21:34:03;25.30;45.20
26503;DHT22;14177;51.520;6.764;2022-08-11T21:36:52;25.30;45.40
26503;DHT22;14177;51.520;6.764;2022-08-11T21:39:39;25.20;45.30
26503;DHT22;14177;51.520;6.764;2022-08-11T21:42:27;25.20;45.50
26503;DHT22;14177;51.520;6.764;2022-08-11T21:45:17;25.10;45.40